Time;durP1;ratioP1;P1;durP2;ratioP2;P2;SDS_P1;SDS_P2;PMS_P1;PMS_P2;Temp;Humidity;BMP_temperature;BMP_pressure;BME280_temperature;BME280_humidity;BME280_pressure;Samples;Min_cycle;Max_cycle;Signal;HPM_P1;HPM_P2
2024/02/18 00:00:39;;;;;;;20.00;9.50;;;;;;;-128.00;-1.00;-1.00;102593;1259;1005334;-79
2024/02/18 00:03:25;;;;;;;23.40;10.50;;;;;;;-128.00;-1.00;-1.00;102431;1259;1062152;-85
2024/02/18 00:05:52;;;;;;;24.20;9.40;;;;;;;-128.00;-1.00;-1.00;102096;1260;1004596;-85
2024/02/18 00:08:18;;;;;;;16.80;7.90;;;;;;;-128.00;-1.00;-1.00;102399;1260;1003512;-85
2024/02/18 00:10:45;;;;;;;12.00;6.50;;;;;;;-128.00;-1.00;-1.00;102554;1259;1004020;-85
2024/02/18 00:13:11;;;;;;;12.70;7.10;;;;;;;-128.00;-1.00;-1.00;102554;1259;1004148;-79
2024/02/18 00:15:38;;;;;;;12.40;7.10;;;;;;;-128.00;-1.00;-1.00;102186;1265;1004832;-79
2024/02/18 00:18:04;;;;;;;12.80;6.50;;;;;;;-128.00;-1.00;-1.00;102607;1263;1004706;-79
2024/02/18 00:20:31;;;;;;;16.60;7.00;;;;;;;-128.00;-1.00;-1.00;102092;1259;1003917;-85
2024/02/18 00:22:57;;;;;;;7.90;4.80;;;;;;;-128.00;-1.00;-1.00;102556;1263;1004599;-80
2024/02/18 00:25:24;;;;;;;11.50;6.10;;;;;;;-128.00;-1.00;-1.00;102450;1265;1004131;-86
2024/02/18 00:27:51;;;;;;;18.00;6.50;;;;;;;-128.00;-1.00;-1.00;102572;1260;1005043;-86
2024/02/18 00:30:17;;;;;;;10.20;5.60;;;;;;;-128.00;-1.00;-1.00;102529;1260;1004565;-86
2024/02/18 00:32:44;;;;;;;11.80;4.90;;;;;;;-128.00;-1.00;-1.00;102687;1259;1003763;-86
2024/02/18 00:35:10;;;;;;;12.20;4.30;;;;;;;-128.00;-1.00;-1.00;102701;1259;1004172;-87
2024/02/18 00:37:37;;;;;;;8.70;4.40;;;;;;;-128.00;-1.00;-1.00;102828;1263;1004901;-86
2024/02/18 00:40:03;;;;;;;9.90;5.00;;;;;;;-128.00;-1.00;-1.00;102436;1260;1004878;-86
2024/02/18 00:42:30;;;;;;;7.50;3.80;;;;;;;-128.00;-1.00;-1.00;102501;1263;1005141;-80
2024/02/18 00:44:57;;;;;;;9.20;5.00;;;;;;;-128.00;-1.00;-1.00;103772;1264;1004369;-86
2024/02/18 00:47:23;;;;;;;9.00;4.90;;;;;;;-128.00;-1.00;-1.00;102621;1259;1004480;-86
2024/02/18 00:49:50;;;;;;;8.70;4.90;;;;;;;-128.00;-1.00;-1.00;102711;1260;1004311;-80
2024/02/18 00:52:16;;;;;;;8.70;4.10;;;;;;;-128.00;-1.00;-1.00;102545;1260;1005315;-85
2024/02/18 00:54:43;;;;;;;9.40;4.50;;;;;;;-128.00;-1.00;-1.00;102527;1260;1004404;-79
2024/02/18 00:57:09;;;;;;;7.80;4.20;;;;;;;-128.00;-1.00;-1.00;102382;1265;1004268;-86
2024/02/18 00:59:36;;;;;;;13.20;5.50;;;;;;;-128.00;-1.00;-1.00;102540;1263;1004920;-80
2024/02/18 01:02:03;;;;;;;6.60;3.60;;;;;;;-128.00;-1.00;-1.00;102490;1260;1004851;-86
2024/02/18 01:04:29;;;;;;;6.50;4.40;;;;;;;-128.00;-1.00;-1.00;102568;1260;1004286;-86
2024/02/18 01:06:56;;;;;;;7.20;3.40;;;;;;;-128.00;-1.00;-1.00;102530;1261;1005362;-86
2024/02/18 01:09:22;;;;;;;5.80;3.40;;;;;;;-128.00;-1.00;-1.00;102509;1260;1004597;-81
2024/02/18 01:11:50;;;;;;;6.70;3.40;;;;;;;-128.00;-1.00;-1.00;102396;1259;1004362;-80
2024/02/18 01:14:17;;;;;;;8.10;4.20;;;;;;;-128.00;-1.00;-1.00;102422;1266;1004446;-80
2024/02/18 01:16:44;;;;;;;9.50;4.20;;;;;;;-128.00;-1.00;-1.00;102348;1267;1003868;-80
2024/02/18 01:19:10;;;;;;;6.00;3.50;;;;;;;-128.00;-1.00;-1.00;102456;1260;1003905;-80
2024/02/18 01:21:37;;;;;;;5.80;3.00;;;;;;;-128.00;-1.00;-1.00;102413;1259;1005003;-87
2024/02/18 01:24:03;;;;;;;9.20;5.50;;;;;;;-128.00;-1.00;-1.00;102457;1261;1004768;-80
2024/02/18 01:26:30;;;;;;;8.60;4.50;;;;;;;-128.00;-1.00;-1.00;102460;1260;1004903;-86
2024/02/18 01:28:57;;;;;;;7.20;3.90;;;;;;;-128.00;-1.00;-1.00;102441;1265;1004968;-87
2024/02/18 01:31:23;;;;;;;12.70;7.30;;;;;;;-128.00;-1.00;-1.00;102435;1262;1005608;-80
2024/02/18 01:33:50;;;;;;;16.10;9.60;;;;;;;-128.00;-1.00;-1.00;102511;1260;1005028;-87
2024/02/18 01:36:16;;;;;;;12.20;7.00;;;;;;;-128.00;-1.00;-1.00;102415;1264;1004051;-86
2024/02/18 01:38:42;;;;;;;8.00;4.40;;;;;;;-128.00;-1.00;-1.00;102451;1259;1004292;-86
2024/02/18 01:41:10;;;;;;;7.40;4.00;;;;;;;-128.00;-1.00;-1.00;102355;1274;1004079;-80
2024/02/18 01:43:37;;;;;;;9.30;4.20;;;;;;;-128.00;-1.00;-1.00;102472;1260;1004627;-86
2024/02/18 01:46:03;;;;;;;5.90;3.30;;;;;;;-128.00;-1.00;-1.00;102443;1264;1005128;-87
2024/02/18 01:48:31;;;;;;;3.20;2.60;;;;;;;-128.00;-1.00;-1.00;102469;1259;1004301;-87
2024/02/18 01:50:58;;;;;;;5.10;2.90;;;;;;;-128.00;-1.00;-1.00;102424;1261;1004736;-80
2024/02/18 01:53:24;;;;;;;6.70;3.30;;;;;;;-128.00;-1.00;-1.00;102393;1261;1005086;-80
2024/02/18 01:55:51;;;;;;;5.40;3.20;;;;;;;-128.00;-1.00;-1.00;102444;1265;1004394;-80
2024/02/18 01:58:17;;;;;;;8.00;3.60;;;;;;;-128.00;-1.00;-1.00;102418;1265;1004056;-80
2024/02/18 02:00:44;;;;;;;7.30;2.90;;;;;;;-128.00;-1.00;-1.00;102401;1266;1004414;-82
2024/02/18 02:03:12;;;;;;;6.10;2.60;;;;;;;-128.00;-1.00;-1.00;102418;1261;1004146;-87
2024/02/18 02:05:39;;;;;;;3.50;2.10;;;;;;;-128.00;-1.00;-1.00;102439;1260;1065220;-80
2024/02/18 02:08:06;;;;;;;7.30;2.60;;;;;;;-128.00;-1.00;-1.00;102421;1266;1004158;-87
2024/02/18 02:10:33;;;;;;;3.40;2.60;;;;;;;-128.00;-1.00;-1.00;102372;1268;1004119;-80
2024/02/18 02:12:59;;;;;;;9.30;2.80;;;;;;;-128.00;-1.00;-1.00;102413;1268;1004387;-80
2024/02/18 02:15:26;;;;;;;9.60;4.20;;;;;;;-128.00;-1.00;-1.00;102444;1265;1004440;-80
2024/02/18 02:17:53;;;;;;;9.90;4.80;;;;;;;-128.00;-1.00;-1.00;102471;1259;1004801;-80
2024/02/18 02:20:19;;;;;;;6.50;3.50;;;;;;;-128.00;-1.00;-1.00;102494;1265;1004060;-80
2024/02/18 02:22:46;;;;;;;9.80;4.90;;;;;;;-128.00;-1.00;-1.00;102464;1260;1004987;-83
2024/02/18 02:25:13;;;;;;;9.80;3.50;;;;;;;-128.00;-1.00;-1.00;102499;1261;1004377;-80
2024/02/18 02:27:41;;;;;;;7.30;4.10;;;;;;;-128.00;-1.00;-1.00;102755;1265;1003985;-80
2024/02/18 02:30:08;;;;;;;6.30;3.00;;;;;;;-128.00;-1.00;-1.00;102615;1265;1004418;-81
2024/02/18 02:32:35;;;;;;;5.10;3.40;;;;;;;-128.00;-1.00;-1.00;102828;1269;1004449;-80
2024/02/18 02:35:02;;;;;;;6.90;3.00;;;;;;;-128.00;-1.00;-1.00;102914;1260;1004820;-80
2024/02/18 02:37:29;;;;;;;6.10;2.60;;;;;;;-128.00;-1.00;-1.00;102860;1261;1004411;-81
2024/02/18 02:39:56;;;;;;;4.60;2.80;;;;;;;-128.00;-1.00;-1.00;102811;1261;1003662;-86
2024/02/18 02:42:22;;;;;;;7.40;3.40;;;;;;;-128.00;-1.00;-1.00;102568;1260;1004675;-87
2024/02/18 02:44:49;;;;;;;5.00;3.20;;;;;;;-128.00;-1.00;-1.00;103065;1259;1004316;-87
2024/02/18 02:47:15;;;;;;;6.40;3.20;;;;;;;-128.00;-1.00;-1.00;103672;1262;1003972;-87
2024/02/18 02:49:42;;;;;;;5.10;2.40;;;;;;;-128.00;-1.00;-1.00;103296;1265;1004414;-81
2024/02/18 02:52:08;;;;;;;7.70;3.40;;;;;;;-128.00;-1.00;-1.00;103082;1261;1004643;-80
2024/02/18 02:54:35;;;;;;;5.40;3.00;;;;;;;-128.00;-1.00;-1.00;102910;1259;1003773;-81
2024/02/18 02:57:01;;;;;;;8.00;3.60;;;;;;;-128.00;-1.00;-1.00;102516;1266;1004848;-87
2024/02/18 02:59:28;;;;;;;9.40;3.50;;;;;;;-128.00;-1.00;-1.00;102449;1264;1004697;-86
2024/02/18 03:01:55;;;;;;;7.90;4.10;;;;;;;-128.00;-1.00;-1.00;102445;1266;1004520;-86
2024/02/18 03:04:21;;;;;;;6.50;3.40;;;;;;;-128.00;-1.00;-1.00;102487;1261;1004560;-80
2024/02/18 03:06:48;;;;;;;5.40;3.60;;;;;;;-128.00;-1.00;-1.00;102396;1261;1004185;-80
2024/02/18 03:09:14;;;;;;;7.40;3.80;;;;;;;-128.00;-1.00;-1.00;102483;1264;1004571;-79
2024/02/18 03:11:41;;;;;;;10.30;4.10;;;;;;;-128.00;-1.00;-1.00;102218;1259;1003964;-87
2024/02/18 03:14:08;;;;;;;5.80;2.90;;;;;;;-128.00;-1.00;-1.00;102488;1261;1005226;-80
2024/02/18 03:16:34;;;;;;;8.00;3.00;;;;;;;-128.00;-1.00;-1.00;102482;1265;1004224;-85
2024/02/18 03:19:01;;;;;;;8.20;3.90;;;;;;;-128.00;-1.00;-1.00;102457;1262;1004608;-78
2024/02/18 03:21:27;;;;;;;7.30;5.20;;;;;;;-128.00;-1.00;-1.00;102469;1260;1003707;-86
2024/02/18 03:23:54;;;;;;;12.20;4.60;;;;;;;-128.00;-1.00;-1.00;102429;1261;1005499;-79
2024/02/18 03:26:21;;;;;;;8.50;4.40;;;;;;;-128.00;-1.00;-1.00;102427;1260;1004691;-85
2024/02/18 03:28:47;;;;;;;5.70;3.30;;;;;;;-128.00;-1.00;-1.00;102513;1264;1004263;-79
2024/02/18 03:31:17;;;;;;;7.00;4.00;;;;;;;-128.00;-1.00;-1.00;102430;1264;1004469;-86
2024/02/18 03:33:44;;;;;;;6.40;3.10;;;;;;;-128.00;-1.00;-1.00;104019;1260;1058518;-85
2024/02/18 03:36:11;;;;;;;5.70;3.30;;;;;;;-128.00;-1.00;-1.00;102557;1259;1004083;-86
2024/02/18 03:38:37;;;;;;;5.50;2.80;;;;;;;-128.00;-1.00;-1.00;102415;1260;1004305;-85
2024/02/18 03:41:07;;;;;;;6.40;2.90;;;;;;;-128.00;-1.00;-1.00;102456;1264;1004387;-79
2024/02/18 03:43:33;;;;;;;7.30;3.00;;;;;;;-128.00;-1.00;-1.00;102429;1267;1064115;-86
2024/02/18 03:46:00;;;;;;;7.60;3.30;;;;;;;-128.00;-1.00;-1.00;102438;1264;1004415;-85
2024/02/18 03:48:26;;;;;;;5.60;3.20;;;;;;;-128.00;-1.00;-1.00;102418;1264;1006558;-85
2024/02/18 03:50:53;;;;;;;8.70;3.70;;;;;;;-128.00;-1.00;-1.00;102453;1264;1004371;-80
2024/02/18 03:53:20;;;;;;;5.50;2.90;;;;;;;-128.00;-1.00;-1.00;102405;1260;1004750;-79
2024/02/18 03:55:46;;;;;;;6.40;3.80;;;;;;;-128.00;-1.00;-1.00;102351;1267;1004524;-86
2024/02/18 03:58:14;;;;;;;5.20;3.20;;;;;;;-128.00;-1.00;-1.00;102406;1268;1004219;-86
2024/02/18 04:00:45;;;;;;;8.70;4.20;;;;;;;-128.00;-1.00;-1.00;102458;1264;1004325;-79
2024/02/18 04:03:13;;;;;;;5.70;3.00;;;;;;;-128.00;-1.00;-1.00;102424;1264;1045684;-86
2024/02/18 04:05:42;;;;;;;7.00;3.50;;;;;;;-128.00;-1.00;-1.00;102496;1264;1003988;-79
2024/02/18 04:08:09;;;;;;;6.50;3.60;;;;;;;-128.00;-1.00;-1.00;102439;1264;1061523;-80
2024/02/18 04:10:36;;;;;;;5.60;3.80;;;;;;;-128.00;-1.00;-1.00;102420;1261;1004037;-79
2024/02/18 04:13:02;;;;;;;6.10;4.10;;;;;;;-128.00;-1.00;-1.00;102486;1266;1004593;-85
2024/02/18 04:15:29;;;;;;;7.10;3.60;;;;;;;-128.00;-1.00;-1.00;102493;1260;1005522;-85
2024/02/18 04:17:55;;;;;;;7.90;3.70;;;;;;;-128.00;-1.00;-1.00;102475;1264;1005539;-79
2024/02/18 04:20:22;;;;;;;7.10;4.80;;;;;;;-128.00;-1.00;-1.00;102450;1265;1004174;-79
2024/02/18 04:22:49;;;;;;;10.00;5.30;;;;;;;-128.00;-1.00;-1.00;102447;1261;1003644;-85
2024/02/18 04:25:16;;;;;;;5.80;3.20;;;;;;;-128.00;-1.00;-1.00;102325;1266;1005013;-85
2024/02/18 04:27:42;;;;;;;10.80;3.90;;;;;;;-128.00;-1.00;-1.00;102375;1259;1004824;-79
2024/02/18 04:30:09;;;;;;;6.80;4.30;;;;;;;-128.00;-1.00;-1.00;102428;1260;1006106;-79
2024/02/18 04:32:35;;;;;;;6.00;4.20;;;;;;;-128.00;-1.00;-1.00;101967;1266;1004818;-86
2024/02/18 04:35:03;;;;;;;10.40;4.50;;;;;;;-128.00;-1.00;-1.00;102496;1264;1005051;-85
2024/02/18 04:37:29;;;;;;;7.60;4.30;;;;;;;-128.00;-1.00;-1.00;102333;1261;1005479;-79
2024/02/18 04:39:57;;;;;;;7.70;3.10;;;;;;;-128.00;-1.00;-1.00;102388;1266;1003870;-79
2024/02/18 04:42:23;;;;;;;6.30;4.50;;;;;;;-128.00;-1.00;-1.00;102433;1261;1004313;-85
2024/02/18 04:44:50;;;;;;;5.60;3.70;;;;;;;-128.00;-1.00;-1.00;102817;1264;1004110;-79
2024/02/18 04:47:16;;;;;;;7.10;3.60;;;;;;;-128.00;-1.00;-1.00;101944;1267;1004526;-79
2024/02/18 04:49:43;;;;;;;8.70;3.80;;;;;;;-128.00;-1.00;-1.00;101961;1262;1003866;-79
2024/02/18 04:52:09;;;;;;;7.20;4.00;;;;;;;-128.00;-1.00;-1.00;102227;1266;1004669;-85
2024/02/18 04:54:36;;;;;;;8.40;4.10;;;;;;;-128.00;-1.00;-1.00;102367;1260;1003520;-85
2024/02/18 04:57:02;;;;;;;6.30;4.10;;;;;;;-128.00;-1.00;-1.00;102436;1261;1004739;-86
2024/02/18 04:59:29;;;;;;;8.80;5.10;;;;;;;-128.00;-1.00;-1.00;102469;1261;1003899;-79
2024/02/18 05:01:55;;;;;;;12.60;6.10;;;;;;;-128.00;-1.00;-1.00;102396;1261;1005334;-79
2024/02/18 05:04:29;;;;;;;10.60;4.80;;;;;;;-128.00;-1.00;-1.00;102371;1264;1004929;-85
2024/02/18 05:06:55;;;;;;;8.70;4.30;;;;;;;-128.00;-1.00;-1.00;102459;1259;1047032;-85
2024/02/18 05:09:22;;;;;;;10.50;4.80;;;;;;;-128.00;-1.00;-1.00;102405;1261;1004015;-85
2024/02/18 05:11:50;;;;;;;7.70;3.80;;;;;;;-128.00;-1.00;-1.00;102421;1266;1004221;-79
2024/02/18 05:14:18;;;;;;;9.50;5.50;;;;;;;-128.00;-1.00;-1.00;102469;1267;1004074;-79
2024/02/18 05:16:45;;;;;;;13.20;5.90;;;;;;;-128.00;-1.00;-1.00;102417;1261;1004638;-80
2024/02/18 05:19:11;;;;;;;7.00;4.10;;;;;;;-128.00;-1.00;-1.00;102159;1264;1005354;-86
2024/02/18 05:21:39;;;;;;;10.40;4.70;;;;;;;-128.00;-1.00;-1.00;103222;1260;1004990;-79
2024/02/18 05:24:06;;;;;;;5.90;3.00;;;;;;;-128.00;-1.00;-1.00;102364;1261;1005001;-86
2024/02/18 05:26:32;;;;;;;7.80;4.30;;;;;;;-128.00;-1.00;-1.00;102442;1261;1004088;-79
2024/02/18 05:28:59;;;;;;;18.50;7.00;;;;;;;-128.00;-1.00;-1.00;102410;1266;1003713;-80
2024/02/18 05:31:25;;;;;;;10.80;4.80;;;;;;;-128.00;-1.00;-1.00;102426;1260;1004520;-85
2024/02/18 05:33:52;;;;;;;10.00;5.30;;;;;;;-128.00;-1.00;-1.00;102422;1261;1004248;-79
2024/02/18 05:36:22;;;;;;;8.50;5.60;;;;;;;-128.00;-1.00;-1.00;102310;1267;1005363;-79
2024/02/18 05:38:48;;;;;;;17.70;8.20;;;;;;;-128.00;-1.00;-1.00;104171;1260;1058660;-85
2024/02/18 05:41:16;;;;;;;16.30;7.80;;;;;;;-128.00;-1.00;-1.00;104143;1260;1004249;-85
2024/02/18 05:43:42;;;;;;;9.00;5.50;;;;;;;-128.00;-1.00;-1.00;105160;1259;1003902;-80
2024/02/18 05:46:09;;;;;;;11.20;5.10;;;;;;;-128.00;-1.00;-1.00;102605;1260;1003602;-79
2024/02/18 05:48:38;;;;;;;11.90;5.20;;;;;;;-128.00;-1.00;-1.00;101988;1261;1004115;-86
2024/02/18 05:51:04;;;;;;;9.10;5.30;;;;;;;-128.00;-1.00;-1.00;102427;1264;1059838;-80
2024/02/18 05:53:31;;;;;;;8.30;4.30;;;;;;;-128.00;-1.00;-1.00;102475;1260;1004400;-79
2024/02/18 05:55:57;;;;;;;9.30;4.50;;;;;;;-128.00;-1.00;-1.00;102443;1261;1004867;-86
2024/02/18 05:58:24;;;;;;;5.70;4.10;;;;;;;-128.00;-1.00;-1.00;102481;1261;1003867;-86
2024/02/18 06:00:50;;;;;;;9.40;4.50;;;;;;;-128.00;-1.00;-1.00;102419;1259;1004088;-79
2024/02/18 06:03:17;;;;;;;7.20;4.80;;;;;;;-128.00;-1.00;-1.00;102476;1261;1004428;-79
2024/02/18 06:05:44;;;;;;;8.50;3.90;;;;;;;-128.00;-1.00;-1.00;102397;1266;1005206;-79
2024/02/18 06:08:11;;;;;;;6.30;4.70;;;;;;;-128.00;-1.00;-1.00;102459;1261;1004819;-86
2024/02/18 06:10:37;;;;;;;9.90;4.70;;;;;;;-128.00;-1.00;-1.00;102449;1259;1004000;-79
2024/02/18 06:13:04;;;;;;;6.90;4.80;;;;;;;-128.00;-1.00;-1.00;102485;1264;1004125;-78
2024/02/18 06:15:32;;;;;;;11.10;5.40;;;;;;;-128.00;-1.00;-1.00;102341;1260;1004262;-79
2024/02/18 06:17:59;;;;;;;14.10;7.40;;;;;;;-128.00;-1.00;-1.00;101966;1259;1003585;-79
2024/02/18 06:20:26;;;;;;;15.70;9.30;;;;;;;-128.00;-1.00;-1.00;102427;1264;1005183;-85
2024/02/18 06:22:52;;;;;;;21.00;12.50;;;;;;;-128.00;-1.00;-1.00;102398;1259;1004512;-86
2024/02/18 06:25:19;;;;;;;29.20;9.80;;;;;;;-128.00;-1.00;-1.00;102297;1261;1006108;-85
2024/02/18 06:27:47;;;;;;;12.90;8.60;;;;;;;-128.00;-1.00;-1.00;102437;1261;1003589;-79
2024/02/18 06:30:14;;;;;;;18.60;7.50;;;;;;;-128.00;-1.00;-1.00;102350;1260;1005022;-86
2024/02/18 06:32:40;;;;;;;13.30;6.90;;;;;;;-128.00;-1.00;-1.00;102420;1261;1004986;-86
2024/02/18 06:35:08;;;;;;;7.60;5.30;;;;;;;-128.00;-1.00;-1.00;102434;1259;1004756;-85
2024/02/18 06:37:34;;;;;;;11.90;6.90;;;;;;;-128.00;-1.00;-1.00;102437;1264;1004609;-85
2024/02/18 06:40:01;;;;;;;11.50;7.30;;;;;;;-128.00;-1.00;-1.00;102432;1264;1004069;-79
2024/02/18 06:42:27;;;;;;;14.40;8.30;;;;;;;-128.00;-1.00;-1.00;102320;1260;1005003;-85
2024/02/18 06:44:54;;;;;;;24.80;10.90;;;;;;;-128.00;-1.00;-1.00;102433;1260;1004358;-81
2024/02/18 06:47:20;;;;;;;23.10;12.00;;;;;;;-128.00;-1.00;-1.00;102393;1259;1004906;-85
2024/02/18 06:49:47;;;;;;;18.80;10.20;;;;;;;-128.00;-1.00;-1.00;102371;1260;1004443;-79
2024/02/18 06:52:14;;;;;;;15.20;8.30;;;;;;;-128.00;-1.00;-1.00;102288;1260;1005096;-79
2024/02/18 06:54:41;;;;;;;18.00;9.00;;;;;;;-128.00;-1.00;-1.00;101931;1260;1004012;-85
2024/02/18 06:57:08;;;;;;;22.20;8.70;;;;;;;-128.00;-1.00;-1.00;102381;1260;1005132;-79
2024/02/18 06:59:34;;;;;;;22.30;8.70;;;;;;;-128.00;-1.00;-1.00;102458;1262;1005075;-79
2024/02/18 07:02:01;;;;;;;14.50;8.90;;;;;;;-128.00;-1.00;-1.00;102447;1259;1004652;-79
2024/02/18 07:04:27;;;;;;;11.70;6.90;;;;;;;-128.00;-1.00;-1.00;102572;1259;1005292;-86
2024/02/18 07:06:54;;;;;;;10.50;6.60;;;;;;;-128.00;-1.00;-1.00;102398;1264;1004942;-79
2024/02/18 07:09:21;;;;;;;9.60;6.30;;;;;;;-128.00;-1.00;-1.00;102392;1259;1003637;-79
2024/02/18 07:11:49;;;;;;;18.90;7.20;;;;;;;-128.00;-1.00;-1.00;102185;1260;1003594;-86
2024/02/18 07:14:15;;;;;;;15.10;7.30;;;;;;;-128.00;-1.00;-1.00;102523;1260;1005253;-79
2024/02/18 07:16:42;;;;;;;9.30;4.80;;;;;;;-128.00;-1.00;-1.00;102247;1260;1005409;-79
2024/02/18 07:19:08;;;;;;;8.50;6.20;;;;;;;-128.00;-1.00;-1.00;101986;1264;1004901;-79
2024/02/18 07:21:35;;;;;;;12.80;7.40;;;;;;;-128.00;-1.00;-1.00;102213;1260;1004918;-79
2024/02/18 07:24:01;;;;;;;16.00;9.00;;;;;;;-128.00;-1.00;-1.00;102573;1259;1003857;-86
2024/02/18 07:26:28;;;;;;;12.40;6.20;;;;;;;-128.00;-1.00;-1.00;103949;1259;1003888;-86
2024/02/18 07:28:54;;;;;;;11.80;5.80;;;;;;;-128.00;-1.00;-1.00;102385;1260;1003777;-85
2024/02/18 07:31:21;;;;;;;10.60;4.30;;;;;;;-128.00;-1.00;-1.00;102411;1264;1004604;-79
2024/02/18 07:33:47;;;;;;;8.80;4.20;;;;;;;-128.00;-1.00;-1.00;101949;1259;1004417;-85
2024/02/18 07:36:14;;;;;;;7.30;4.40;;;;;;;-128.00;-1.00;-1.00;102420;1259;1004043;-85
2024/02/18 07:38:40;;;;;;;7.60;4.20;;;;;;;-128.00;-1.00;-1.00;102413;1260;1006132;-79
2024/02/18 07:41:07;;;;;;;10.00;4.60;;;;;;;-128.00;-1.00;-1.00;101882;1267;1004752;-86
2024/02/18 07:43:33;;;;;;;7.80;5.10;;;;;;;-128.00;-1.00;-1.00;102394;1259;1005421;-85
2024/02/18 07:46:00;;;;;;;13.40;6.80;;;;;;;-128.00;-1.00;-1.00;102435;1261;1005373;-81
2024/02/18 07:48:27;;;;;;;7.00;4.70;;;;;;;-128.00;-1.00;-1.00;102355;1259;1004427;-79
2024/02/18 07:50:53;;;;;;;8.70;4.50;;;;;;;-128.00;-1.00;-1.00;103285;1259;1005220;-79
2024/02/18 07:53:20;;;;;;;7.20;4.20;;;;;;;-128.00;-1.00;-1.00;102452;1264;1004824;-79
2024/02/18 07:55:46;;;;;;;18.40;4.90;;;;;;;-128.00;-1.00;-1.00;102347;1264;1004311;-80
2024/02/18 07:58:16;;;;;;;10.80;6.00;;;;;;;-128.00;-1.00;-1.00;101918;1260;1004163;-86
2024/02/18 08:00:42;;;;;;;9.90;5.70;;;;;;;-128.00;-1.00;-1.00;102437;1260;1062041;-86
2024/02/18 08:03:12;;;;;;;7.30;4.30;;;;;;;-128.00;-1.00;-1.00;102386;1260;1004836;-79
2024/02/18 08:05:38;;;;;;;11.90;5.50;;;;;;;-128.00;-1.00;-1.00;102333;1259;1061131;-85
2024/02/18 08:08:05;;;;;;;10.00;6.00;;;;;;;-128.00;-1.00;-1.00;102357;1262;1004554;-79
2024/02/18 08:10:31;;;;;;;7.90;5.40;;;;;;;-128.00;-1.00;-1.00;102334;1259;1005461;-85
2024/02/18 08:12:58;;;;;;;11.60;6.30;;;;;;;-128.00;-1.00;-1.00;102463;1264;1004516;-79
2024/02/18 08:15:25;;;;;;;13.10;6.60;;;;;;;-128.00;-1.00;-1.00;101985;1267;1004166;-79
2024/02/18 08:17:51;;;;;;;11.20;5.90;;;;;;;-128.00;-1.00;-1.00;102569;1259;1004545;-79
2024/02/18 08:20:18;;;;;;;9.40;5.60;;;;;;;-128.00;-1.00;-1.00;102861;1264;1004302;-81
2024/02/18 08:22:44;;;;;;;11.50;7.70;;;;;;;-128.00;-1.00;-1.00;102451;1259;1004945;-85
2024/02/18 08:25:11;;;;;;;15.40;6.90;;;;;;;-128.00;-1.00;-1.00;102920;1259;1004599;-85
2024/02/18 08:27:38;;;;;;;13.10;7.40;;;;;;;-128.00;-1.00;-1.00;102488;1259;1004688;-80
2024/02/18 08:30:07;;;;;;;14.60;6.80;;;;;;;-128.00;-1.00;-1.00;103185;1264;1004333;-79
2024/02/18 08:32:33;;;;;;;12.50;5.90;;;;;;;-128.00;-1.00;-1.00;102542;1259;1045627;-79
2024/02/18 08:35:00;;;;;;;16.00;7.70;;;;;;;-128.00;-1.00;-1.00;102819;1259;1004750;-79
2024/02/18 08:37:26;;;;;;;12.20;6.60;;;;;;;-128.00;-1.00;-1.00;101966;1259;1004671;-79
2024/02/18 08:39:53;;;;;;;10.20;7.10;;;;;;;-128.00;-1.00;-1.00;103316;1259;1003774;-85
2024/02/18 08:42:20;;;;;;;14.20;7.50;;;;;;;-128.00;-1.00;-1.00;102432;1261;1004164;-79
2024/02/18 08:44:47;;;;;;;15.20;7.70;;;;;;;-128.00;-1.00;-1.00;102419;1260;1004656;-85
2024/02/18 08:47:14;;;;;;;17.80;10.50;;;;;;;-128.00;-1.00;-1.00;102394;1264;1005334;-79
2024/02/18 08:49:41;;;;;;;16.60;10.40;;;;;;;-128.00;-1.00;-1.00;102396;1260;1004474;-86
2024/02/18 08:52:08;;;;;;;13.10;8.70;;;;;;;-128.00;-1.00;-1.00;102414;1265;1003963;-79
2024/02/18 08:54:35;;;;;;;24.10;12.00;;;;;;;-128.00;-1.00;-1.00;102415;1259;1004635;-79
2024/02/18 08:57:01;;;;;;;16.10;9.50;;;;;;;-128.00;-1.00;-1.00;102236;1261;1006645;-86
2024/02/18 08:59:28;;;;;;;13.50;9.00;;;;;;;-128.00;-1.00;-1.00;102465;1264;1004678;-85
2024/02/18 09:01:58;;;;;;;11.80;7.40;;;;;;;-128.00;-1.00;-1.00;102365;1260;1004145;-79
2024/02/18 09:04:25;;;;;;;11.10;7.90;;;;;;;-128.00;-1.00;-1.00;102370;1259;1058139;-86
2024/02/18 09:06:51;;;;;;;13.80;8.10;;;;;;;-128.00;-1.00;-1.00;102367;1259;1003873;-79
2024/02/18 09:09:18;;;;;;;12.60;6.10;;;;;;;-128.00;-1.00;-1.00;102392;1259;1005440;-86
2024/02/18 09:11:45;;;;;;;12.80;7.70;;;;;;;-128.00;-1.00;-1.00;102382;1264;1004604;-79
2024/02/18 09:14:11;;;;;;;15.90;9.60;;;;;;;-128.00;-1.00;-1.00;102468;1259;1005017;-85
2024/02/18 09:16:38;;;;;;;16.70;8.60;;;;;;;-128.00;-1.00;-1.00;102353;1260;1005421;-79
2024/02/18 09:19:05;;;;;;;16.60;9.60;;;;;;;-128.00;-1.00;-1.00;102511;1259;1003773;-85
2024/02/18 09:21:32;;;;;;;12.90;6.80;;;;;;;-128.00;-1.00;-1.00;103002;1259;1003576;-86
2024/02/18 09:23:59;;;;;;;11.70;7.10;;;;;;;-128.00;-1.00;-1.00;102421;1259;1005551;-80
2024/02/18 09:26:25;;;;;;;11.10;7.50;;;;;;;-128.00;-1.00;-1.00;102367;1259;1005131;-79
2024/02/18 09:28:52;;;;;;;13.50;10.20;;;;;;;-128.00;-1.00;-1.00;102641;1260;1004173;-80
2024/02/18 09:31:19;;;;;;;19.70;15.40;;;;;;;-128.00;-1.00;-1.00;102237;1259;1004632;-79
2024/02/18 09:33:45;;;;;;;10.90;7.70;;;;;;;-128.00;-1.00;-1.00;102407;1260;1005048;-80
2024/02/18 09:36:12;;;;;;;13.40;9.10;;;;;;;-128.00;-1.00;-1.00;101918;1260;1004491;-86
2024/02/18 09:38:38;;;;;;;11.00;6.50;;;;;;;-128.00;-1.00;-1.00;102455;1259;1003610;-86
2024/02/18 09:41:06;;;;;;;10.10;6.90;;;;;;;-128.00;-1.00;-1.00;102388;1264;1004833;-79
2024/02/18 09:43:41;;;;;;;11.20;6.40;;;;;;;-128.00;-1.00;-1.00;102429;1260;1004784;-85
2024/02/18 09:46:08;;;;;;;11.00;6.60;;;;;;;-128.00;-1.00;-1.00;102385;1259;1045422;-79
2024/02/18 09:48:36;;;;;;;12.00;7.30;;;;;;;-128.00;-1.00;-1.00;102406;1259;1005285;-86
2024/02/18 09:51:05;;;;;;;12.20;7.70;;;;;;;-128.00;-1.00;-1.00;102450;1259;1003595;-80
2024/02/18 09:53:32;;;;;;;13.10;7.20;;;;;;;-128.00;-1.00;-1.00;102400;1260;1060797;-86
2024/02/18 09:56:00;;;;;;;14.60;6.50;;;;;;;-128.00;-1.00;-1.00;102431;1259;1004532;-86
2024/02/18 09:58:27;;;;;;;11.30;7.40;;;;;;;-128.00;-1.00;-1.00;102384;1260;1004415;-86
2024/02/18 10:00:53;;;;;;;12.20;6.90;;;;;;;-128.00;-1.00;-1.00;102480;1266;1004336;-79
2024/02/18 10:03:20;;;;;;;16.70;8.60;;;;;;;-128.00;-1.00;-1.00;102356;1267;1004748;-86
2024/02/18 10:05:46;;;;;;;12.80;7.70;;;;;;;-128.00;-1.00;-1.00;102523;1259;1003942;-79
2024/02/18 10:08:13;;;;;;;13.90;6.80;;;;;;;-128.00;-1.00;-1.00;102620;1259;1004037;-80
2024/02/18 10:10:39;;;;;;;10.30;5.70;;;;;;;-128.00;-1.00;-1.00;102477;1259;1003471;-79
2024/02/18 10:13:07;;;;;;;9.70;6.00;;;;;;;-128.00;-1.00;-1.00;102332;1259;1004364;-86
2024/02/18 10:15:34;;;;;;;9.30;6.10;;;;;;;-128.00;-1.00;-1.00;102403;1260;1005345;-85
2024/02/18 10:18:02;;;;;;;8.50;5.90;;;;;;;-128.00;-1.00;-1.00;102435;1259;1003778;-86
2024/02/18 10:20:30;;;;;;;12.10;6.70;;;;;;;-128.00;-1.00;-1.00;103538;1259;1004371;-86
2024/02/18 10:22:56;;;;;;;10.00;6.40;;;;;;;-128.00;-1.00;-1.00;103085;1259;1004718;-80
2024/02/18 10:25:23;;;;;;;10.90;5.70;;;;;;;-128.00;-1.00;-1.00;104337;1259;1004524;-86
2024/02/18 10:27:49;;;;;;;9.50;6.50;;;;;;;-128.00;-1.00;-1.00;102543;1259;1003831;-80
2024/02/18 10:30:16;;;;;;;11.20;7.20;;;;;;;-128.00;-1.00;-1.00;102345;1267;1004742;-86
2024/02/18 10:32:43;;;;;;;9.50;6.70;;;;;;;-128.00;-1.00;-1.00;102450;1259;1004355;-80
2024/02/18 10:35:09;;;;;;;11.90;6.80;;;;;;;-128.00;-1.00;-1.00;102491;1259;1004966;-80
2024/02/18 10:37:37;;;;;;;9.70;5.90;;;;;;;-128.00;-1.00;-1.00;102440;1259;1003970;-80
2024/02/18 10:40:22;;;;;;;12.60;7.20;;;;;;;-128.00;-1.00;-1.00;103984;1262;1003578;-80
2024/02/18 10:42:54;;;;;;;9.20;6.10;;;;;;;-128.00;-1.00;-1.00;103387;1259;1058015;-87
2024/02/18 10:45:21;;;;;;;11.50;7.40;;;;;;;-128.00;-1.00;-1.00;102312;1259;1059497;-86
2024/02/18 10:47:55;;;;;;;12.20;6.90;;;;;;;-128.00;-1.00;-1.00;102422;1259;1003905;-80
2024/02/18 10:50:21;;;;;;;9.70;7.00;;;;;;;-128.00;-1.00;-1.00;102438;1264;1046867;-86
2024/02/18 10:53:02;;;;;;;8.10;6.00;;;;;;;-128.00;-1.00;-1.00;102443;1259;1005705;-80
2024/02/18 10:55:40;;;;;;;11.30;7.60;;;;;;;-128.00;-1.00;-1.00;104931;1260;1058264;-80
2024/02/18 10:58:21;;;;;;;10.70;6.10;;;;;;;-128.00;-1.00;-1.00;102389;1266;1058978;-79
2024/02/18 11:00:49;;;;;;;8.40;6.00;;;;;;;-128.00;-1.00;-1.00;102443;1263;1045926;-86
2024/02/18 11:03:20;;;;;;;13.40;7.20;;;;;;;-128.00;-1.00;-1.00;102442;1259;1005752;-79
2024/02/18 11:05:48;;;;;;;12.30;7.80;;;;;;;-128.00;-1.00;-1.00;102463;1266;1064720;-84
2024/02/18 11:08:14;;;;;;;9.10;6.00;;;;;;;-128.00;-1.00;-1.00;102393;1262;1005243;-86
2024/02/18 11:10:41;;;;;;;8.50;6.00;;;;;;;-128.00;-1.00;-1.00;102400;1263;1004413;-85
2024/02/18 11:13:07;;;;;;;13.10;6.00;;;;;;;-128.00;-1.00;-1.00;102501;1259;1003656;-80